Data Viewer
| City | State | Eastern Time | Source | Temp | DewPt | RH | BP | 5 Min Precip | Wind Speed | Wind Dir | 5 Min Wind Max | 5 Min Wind Max Dir |
|---|---|---|---|---|---|---|---|---|---|---|---|---|
| Wilmington (ASOS) | DE | 2026-05-09 06:50 | ASOS | 59 | 48 | 67 | 29.88 | 15 | S | |||
| Wilmington (ASOS) | DE | 2026-05-10 03:55 | ASOS | 50 | 46 | 87 | 29.85 | 6 | NW | |||
| Wilmington (ASOS) | DE | 2026-05-10 04:35 | ASOS | 48 | 45 | 87 | 29.86 | 6 | NNW | |||
| Wilmington (ASOS) | DE | 2026-05-10 04:30 | ASOS | 48 | 46 | 93 | 29.86 | 6 | NNW | |||
| Wilmington (ASOS) | DE | 2026-05-10 04:25 | ASOS | 48 | 46 | 93 | 29.86 | 3 | NNW | |||
| Wilmington (ASOS) | DE | 2026-05-10 04:20 | ASOS | 48 | 46 | 93 | 29.86 | 6 | NNW | |||
| Wilmington (ASOS) | DE | 2026-05-10 04:15 | ASOS | 50 | 46 | 87 | 29.86 | 3 | NNW | |||
| Wilmington (ASOS) | DE | 2026-05-10 04:10 | ASOS | 50 | 46 | 87 | 29.85 | 3 | NNW | |||
| Wilmington (ASOS) | DE | 2026-05-10 04:05 | ASOS | 48 | 46 | 93 | 29.85 | 5 | NNW | |||
| Wilmington (ASOS) | DE | 2026-05-10 04:00 | ASOS | 48 | 46 | 93 | 29.85 | 5 | NW | |||
| Wilmington (ASOS) | DE | 2026-05-10 03:51 | ASOS | 50 | 48 | 93 | 29.85 | 3 | NNW | |||
| Wilmington (ASOS) | DE | 2026-05-10 04:45 | ASOS | 48 | 46 | 93 | 29.87 | 10 | NNW | |||
| Wilmington (ASOS) | DE | 2026-05-10 03:50 | ASOS | 50 | 46 | 87 | 29.85 | 3 | NW | |||
| Wilmington (ASOS) | DE | 2026-05-10 03:45 | ASOS | 50 | 46 | 87 | 29.85 | 0 | N | |||
| Wilmington (ASOS) | DE | 2026-05-10 03:40 | ASOS | 48 | 45 | 87 | 29.85 | 6 | NW | |||
| Wilmington (ASOS) | DE | 2026-05-10 03:35 | ASOS | 48 | 46 | 93 | 29.85 | 7 | NNW | |||
| Wilmington (ASOS) | DE | 2026-05-10 03:30 | ASOS | 50 | 46 | 87 | 29.85 | 3 | NNW | |||
| Wilmington (ASOS) | DE | 2026-05-10 03:25 | ASOS | 52 | 48 | 87 | 29.85 | 3 | NNW | |||
| Wilmington (ASOS) | DE | 2026-05-10 03:20 | ASOS | 54 | 48 | 82 | 29.85 | 3 | NNE | |||
| Wilmington (ASOS) | DE | 2026-05-10 03:15 | ASOS | 54 | 48 | 82 | 29.84 | 3 | ENE | |||
| Wilmington (ASOS) | DE | 2026-05-10 03:10 | ASOS | 54 | 48 | 82 | 29.84 | 3 | ENE | |||
| Wilmington (ASOS) | DE | 2026-05-10 04:40 | ASOS | 48 | 46 | 93 | 29.86 | 6 | NNW | |||
| Wilmington (ASOS) | DE | 2026-05-10 04:51 | ASOS | 51 | 48 | 89 | 29.86 | 7 | N | |||
| Wilmington (ASOS) | DE | 2026-05-10 03:00 | ASOS | 54 | 50 | 88 | 29.84 | 3 | ENE | |||
| Wilmington (ASOS) | DE | 2026-05-10 05:51 | ASOS | 50 | 47 | 89 | 29.88 | 5 | N | |||
| Wilmington (ASOS) | DE | 2026-05-10 06:35 | ASOS | 52 | 48 | 87 | 29.89 | 6 | NNW | |||
| Wilmington (ASOS) | DE | 2026-05-10 06:30 | ASOS | 52 | 48 | 87 | 29.89 | 3 | N | |||
| Wilmington (ASOS) | DE | 2026-05-10 06:25 | ASOS | 52 | 48 | 87 | 29.88 | 0 | N | |||
| Wilmington (ASOS) | DE | 2026-05-10 06:20 | ASOS | 52 | 48 | 87 | 29.88 | |||||
| Wilmington (ASOS) | DE | 2026-05-10 06:15 | ASOS | 51 | 49 | 92 | 29.88 | |||||
| Wilmington (ASOS) | DE | 2026-05-10 06:10 | ASOS | 52 | 48 | 87 | 29.88 | 0 | N | |||
| Wilmington (ASOS) | DE | 2026-05-10 06:05 | ASOS | 52 | 48 | 87 | 29.88 | 0 | N | |||
| Wilmington (ASOS) | DE | 2026-05-10 06:00 | ASOS | 50 | 48 | 94 | 29.88 | |||||
| Wilmington (ASOS) | DE | 2026-05-10 05:55 | ASOS | 50 | 48 | 94 | 29.88 | 3 | NNW | |||
| Wilmington (ASOS) | DE | 2026-05-10 05:50 | ASOS | 50 | 48 | 94 | 29.88 | 5 | N | |||
| Wilmington (ASOS) | DE | 2026-05-10 05:00 | ASOS | 52 | 48 | 87 | 29.87 | 10 | NNW | |||
| Wilmington (ASOS) | DE | 2026-05-10 05:45 | ASOS | 52 | 48 | 87 | 29.88 | 5 | NNW | |||
| Wilmington (ASOS) | DE | 2026-05-10 05:40 | ASOS | 50 | 48 | 94 | 29.88 | 3 | N | |||
| Wilmington (ASOS) | DE | 2026-05-10 05:35 | ASOS | 52 | 48 | 87 | 29.88 | 6 | N | |||
| Wilmington (ASOS) | DE | 2026-05-10 05:30 | ASOS | 52 | 48 | 87 | 29.87 | 3 | N | |||
| Wilmington (ASOS) | DE | 2026-05-10 05:25 | ASOS | 52 | 48 | 87 | 29.87 | 6 | N | |||
| Wilmington (ASOS) | DE | 2026-05-10 05:20 | ASOS | 52 | 48 | 87 | 29.88 | 8 | NNW | |||
| Wilmington (ASOS) | DE | 2026-05-10 05:15 | ASOS | 52 | 48 | 87 | 29.87 | 3 | NNW | |||
| Wilmington (ASOS) | DE | 2026-05-10 05:10 | ASOS | 52 | 48 | 87 | 29.88 | 9 | NW | |||
| Wilmington (ASOS) | DE | 2026-05-10 05:05 | ASOS | 52 | 48 | 87 | 29.87 | 5 | NNW | |||
| Wilmington (ASOS) | DE | 2026-05-10 03:05 | ASOS | 54 | 48 | 82 | 29.84 | 3 | ENE | |||
| Wilmington (ASOS) | DE | 2026-05-10 02:55 | ASOS | 54 | 50 | 88 | 29.84 | 3 | E | |||
| Wilmington (ASOS) | DE | 2026-05-09 07:00 | ASOS | 59 | 48 | 67 | 29.88 | 12 | S | |||
| Wilmington (ASOS) | DE | 2026-05-09 08:05 | ASOS | 61 | 48 | 63 | 29.89 | 12 | S | |||
| Wilmington (ASOS) | DE | 2026-05-09 09:15 | ASOS | 63 | 48 | 59 | 29.88 | 9 | SW | |||
| Wilmington (ASOS) | DE | 2026-05-09 09:10 | ASOS | 63 | 48 | 59 | 29.88 | 8 | SW | |||
| Wilmington (ASOS) | DE | 2026-05-09 09:05 | ASOS | 63 | 48 | 59 | 29.88 | 8 | SW | |||
| Wilmington (ASOS) | DE | 2026-05-09 08:55 | ASOS | 63 | 48 | 59 | 29.88 | 7 | SW | |||
| Wilmington (ASOS) | DE | 2026-05-09 08:50 | ASOS | 61 | 48 | 63 | 29.89 | 9 | SSW | |||
| Wilmington (ASOS) | DE | 2026-05-09 08:40 | ASOS | 61 | 48 | 63 | 29.89 | 9 | SSW | |||
| Wilmington (ASOS) | DE | 2026-05-09 08:25 | ASOS | 61 | 48 | 63 | 29.89 | 9 | SSW | |||
| Wilmington (ASOS) | DE | 2026-05-09 08:20 | ASOS | 61 | 48 | 63 | 29.89 | 10 | SSW | |||
| Wilmington (ASOS) | DE | 2026-05-09 08:15 | ASOS | 61 | 48 | 63 | 29.89 | 10 | S | |||
| Wilmington (ASOS) | DE | 2026-05-09 07:51 | ASOS | 60 | 49 | 67 | 29.89 | 9 | S | |||
| Wilmington (ASOS) | DE | 2026-05-09 09:40 | ASOS | 64 | 48 | 56 | 29.88 | 9 | SW | |||
| Wilmington (ASOS) | DE | 2026-05-09 07:50 | ASOS | 61 | 48 | 63 | 29.89 | 10 | SSW | |||
| Wilmington (ASOS) | DE | 2026-05-09 07:40 | ASOS | 59 | 48 | 67 | 29.89 | 9 | SSW | |||
| Wilmington (ASOS) | DE | 2026-05-09 07:35 | ASOS | 59 | 48 | 67 | 29.89 | 10 | S | |||
| Wilmington (ASOS) | DE | 2026-05-09 07:30 | ASOS | 59 | 48 | 67 | 29.88 | 9 | SSW | |||
| Wilmington (ASOS) | DE | 2026-05-09 07:25 | ASOS | 59 | 48 | 67 | 29.88 | 10 | SSW | |||
| Wilmington (ASOS) | DE | 2026-05-09 07:20 | ASOS | 59 | 48 | 67 | 29.88 | 12 | SSW | |||
| Wilmington (ASOS) | DE | 2026-05-09 07:15 | ASOS | 59 | 48 | 67 | 29.88 | 10 | SSW | |||
| Wilmington (ASOS) | DE | 2026-05-09 07:10 | ASOS | 59 | 48 | 67 | 29.88 | 8 | SSW | |||
| Wilmington (ASOS) | DE | 2026-05-09 07:05 | ASOS | 59 | 48 | 67 | 29.88 | 12 | S | |||
| Wilmington (ASOS) | DE | 2026-05-09 09:25 | ASOS | 63 | 48 | 59 | 29.88 | 10 | SSW | |||
| Wilmington (ASOS) | DE | 2026-05-09 09:50 | ASOS | 64 | 48 | 56 | 29.88 | 9 | SW | |||
| Wilmington (ASOS) | DE | 2026-05-10 02:51 | ASOS | 54 | 50 | 86 | 29.83 | 3 | E | |||
| Wilmington (ASOS) | DE | 2026-05-09 18:51 | ASOS | 62 | 51 | 67 | 29.82 | 9 | NE | |||
| Wilmington (ASOS) | DE | 2026-05-10 02:50 | ASOS | 54 | 50 | 88 | 29.84 | 3 | E | |||
| Wilmington (ASOS) | DE | 2026-05-10 02:45 | ASOS | 54 | 50 | 88 | 29.84 | 3 | E | |||
| Wilmington (ASOS) | DE | 2026-05-10 02:40 | ASOS | 54 | 50 | 88 | 29.84 | 5 | E | |||
| Wilmington (ASOS) | DE | 2026-05-10 02:35 | ASOS | 54 | 50 | 88 | 29.84 | 5 | ENE | |||
| Wilmington (ASOS) | DE | 2026-05-10 02:30 | ASOS | 55 | 50 | 82 | 29.84 | 5 | ENE | |||
| Wilmington (ASOS) | DE | 2026-05-10 02:25 | ASOS | 55 | 50 | 82 | 29.84 | 3 | ENE | |||
| Wilmington (ASOS) | DE | 2026-05-10 02:20 | ASOS | 55 | 50 | 82 | 29.84 | 5 | E | |||
| Wilmington (ASOS) | DE | 2026-05-10 02:15 | ASOS | 55 | 50 | 82 | 29.84 | 5 | E | |||
| Wilmington (ASOS) | DE | 2026-05-09 22:05 | ASOS | 55 | 50 | 82 | 29.85 | 0 | N | |||
| Wilmington (ASOS) | DE | 2026-05-09 14:50 | ASOS | 64 | 52 | 64 | 29.85 | 8 | NNW | |||
| Wilmington (ASOS) | DE | 2026-05-09 09:51 | ASOS | 65 | 49 | 56 | 29.88 | 8 | SW | |||
| Wilmington (ASOS) | DE | 2026-05-09 11:15 | ASOS | 68 | 48 | 49 | 29.88 | 8 | WSW | |||
| Wilmington (ASOS) | DE | 2026-05-09 11:05 | ASOS | 66 | 50 | 56 | 29.88 | 8 | WSW | |||
| Wilmington (ASOS) | DE | 2026-05-09 11:00 | ASOS | 66 | 48 | 52 | 29.89 | 10 | W | |||
| Wilmington (ASOS) | DE | 2026-05-09 10:51 | ASOS | 66 | 49 | 54 | 29.89 | 9 | WSW | |||
| Wilmington (ASOS) | DE | 2026-05-09 10:50 | ASOS | 66 | 48 | 52 | 29.89 | 10 | WSW | |||
| Wilmington (ASOS) | DE | 2026-05-09 10:40 | ASOS | 66 | 48 | 52 | 29.88 | 12 | WSW | |||
| Wilmington (ASOS) | DE | 2026-05-09 10:25 | ASOS | 64 | 48 | 56 | 29.88 | 9 | WSW | |||
| Wilmington (ASOS) | DE | 2026-05-09 10:15 | ASOS | 64 | 48 | 56 | 29.88 | 13 | SW | |||
| Wilmington (ASOS) | DE | 2026-05-09 10:05 | ASOS | 64 | 48 | 56 | 29.88 | 13 | SW | |||
| Wilmington (ASOS) | DE | 2026-05-10 06:40 | ASOS | 52 | 48 | 87 | 29.89 | 5 | NNW |
data collection created in 0.014032125473022 (queried in 0.002954) rendered in: 0.00012302398681641

